Overview Statistics Trail Chart Weather Telemetry Raw packets
 

This is the latest recevied weather packets stored in our database for station/object OE6JVE-13. If no packets are shown the sender has not sent any weather packets the latest 10 day(s).

<< 23 24 25 26 27 28 29 >>
Time Temp. Humidity Pressure Rain* Wind** Luminosity Snow
1788286841 17.78° C 80% 1011.6 hPa 0 mm - - -
1788286231 17.78° C 80% 1011.5 hPa 0 mm - - -
1788285651 18.33° C 80% 1011.5 hPa 0 mm - - -
1788285248 18.33° C 79% 1011.4 hPa 0 mm - - -
1788284455 18.89° C 77% 1011.2 hPa 0 mm - - -
1788283862 18.89° C 76% 1011.1 hPa 0 mm - - -
1788283270 19.44° C 75% 1011.2 hPa 0 mm - - -
1788282679 20° C 74% 1011 hPa 0 mm - - -
1788282020 20° C 72% 1010.9 hPa 0 mm - - -
1788281428 20.56° C 72% 1010.9 hPa 0 mm - - -
1788280836 21.11° C 70% 1010.9 hPa 0 mm - - -
1788280244 21.67° C 68% 1010.9 hPa 0 mm - - -
1788279652 21.67° C 66% 1010.8 hPa 0 mm - - -
1788279060 22.78° C 59% 1010.9 hPa 0 mm - - -
1788278522 23.33° C 56% 1010.9 hPa 0 mm - - -
1788277875 22.78° C 59% 1010.9 hPa 0 mm - - -
1788277223 25° C 54% 1010.9 hPa 0 mm - - -
1788276627 26.67° C 50% 1010.9 hPa 0 mm - - -
1788276034 27.22° C 48% 1010.9 hPa 0 mm - - -
1788275442 27.22° C 47% 1010.8 hPa 0 mm - - -
1788274850 26.11° C 50% 1010.7 hPa 0 mm - - -
1788274258 26.67° C 47% 1010.7 hPa 0 mm - - -
1788273665 27.78° C 41% 1010.6 hPa 0 mm - - -
1788273074 28.33° C 39% 1010.7 hPa 0 mm - - -
1788272416 27.78° C 40% 1010.9 hPa 0 mm - - -

* Rain latest hour (hover to see other rain measurements)
** Current wind speed in m/s (hover to see current wind gust speed)